Time,TemperatureF,DewpointF,PressureIn,WindDirection,WindDirectionDegrees,WindSpeedMPH,WindSpeedGustMPH,Humidity,HourlyPrecipIn,Conditions,Clouds,dailyrainin,SoftwareType,DateUTC
2013-07-12 00:01:00,64.2,62.7,30.01,NW,307,0.0,2.0,95,0.00,,,0.00,WUHU216DAVISVP2,2013-07-12 04:01:00,
2013-07-12 00:06:00,64.1,62.9,30.02,NW,308,0.0,2.0,96,0.00,,,0.00,WUHU216DAVISVP2,2013-07-12 04:06:00,
2013-07-12 00:11:00,63.9,62.7,30.01,NW,307,0.0,1.0,96,0.00,,,0.00,WUHU216DAVISVP2,2013-07-12 04:11:00,
2013-07-12 00:16:00,63.9,62.7,30.02,NW,308,0.0,1.0,96,0.00,,,0.00,WUHU216DAVISVP2,2013-07-12 04:16:00,
2013-07-12 00:21:00,63.8,62.6,30.02,NW,308,0.0,1.0,96,0.00,,,0.00,WUHU216DAVISVP2,2013-07-12 04:21:00,
2013-07-12 00:26:00,63.8,62.6,30.02,NW,308,0.0,0.0,96,0.00,,,0.00,WUHU216DAVISVP2,2013-07-12 04:26:00,
2013-07-12 00:31:00,63.7,62.5,30.02,NW,308,0.0,0.0,96,0.00,,,0.00,WUHU216DAVISVP2,2013-07-12 04:31:00,
2013-07-12 00:36:00,63.6,62.4,30.02,NW,307,0.0,0.0,96,0.00,,,0.00,WUHU216DAVISVP2,2013-07-12 04:36:00,
2013-07-12 00:41:00,63.5,62.3,30.03,NW,308,0.0,0.0,96,0.00,,,0.00,WUHU216DAVISVP2,2013-07-12 04:41:00,
2013-07-12 00:46:00,63.4,62.5,30.03,NW,307,0.0,0.0,97,0.00,,,0.00,WUHU216DAVISVP2,2013-07-12 04:46:00,
2013-07-12 00:51:00,63.4,62.5,30.03,NW,307,0.0,0.0,97,0.00,,,0.00,WUHU216DAVISVP2,2013-07-12 04:51:00,
2013-07-12 00:56:00,63.3,62.4,30.03,NW,308,0.0,0.0,97,0.00,,,0.00,WUHU216DAVISVP2,2013-07-12 04:56:00,
2013-07-12 01:01:00,63.2,62.3,30.03,NW,308,0.0,0.0,97,0.00,,,0.00,WUHU216DAVISVP2,2013-07-12 05:01:00,
2013-07-12 01:06:00,63.1,62.2,30.03,NW,308,0.0,0.0,97,0.00,,,0.00,WUHU216DAVISVP2,2013-07-12 05:06:00,
2013-07-12 01:11:00,63.0,62.1,30.03,NW,308,0.0,0.0,97,0.00,,,0.00,WUHU216DAVISVP2,2013-07-12 05:11:00,
2013-07-12 01:16:00,62.9,62.0,30.03,NW,307,0.0,0.0,97,0.00,,,0.00,WUHU216DAVISVP2,2013-07-12 05:16:00,
2013-07-12 01:21:00,63.0,62.1,30.03,NW,308,0.0,0.0,97,0.00,,,0.00,WUHU216DAVISVP2,2013-07-12 05:21:00,
2013-07-12 01:26:00,63.0,62.1,30.03,NW,308,0.0,0.0,97,0.00,,,0.00,WUHU216DAVISVP2,2013-07-12 05:26:00,
2013-07-12 01:31:00,62.9,62.0,30.02,NW,308,0.0,0.0,97,0.00,,,0.00,WUHU216DAVISVP2,2013-07-12 05:31:00,
2013-07-12 01:36:00,62.8,61.9,30.02,NW,307,0.0,0.0,97,0.00,,,0.00,WUHU216DAVISVP2,2013-07-12 05:36:00,
2013-07-12 01:41:00,62.8,61.9,30.02,NW,307,0.0,1.0,97,0.00,,,0.00,WUHU216DAVISVP2,2013-07-12 05:41:00,
2013-07-12 01:46:00,62.7,61.8,30.02,NW,308,0.0,1.0,97,0.00,,,0.00,WUHU216DAVISVP2,2013-07-12 05:46:00,
2013-07-12 01:51:00,62.7,61.8,30.02,NW,307,0.0,1.0,97,0.00,,,0.00,WUHU216DAVISVP2,2013-07-12 05:51:00,
2013-07-12 01:56:00,62.6,61.7,30.02,NW,308,0.0,1.0,97,0.00,,,0.00,WUHU216DAVISVP2,2013-07-12 05:56:00,
2013-07-12 02:01:00,62.5,61.6,30.02,NW,307,0.0,0.0,97,0.00,,,0.00,WUHU216DAVISVP2,2013-07-12 06:01:00,
2013-07-12 02:06:00,62.6,62.0,30.02,NW,307,0.0,0.0,98,0.00,,,0.00,WUHU216DAVISVP2,2013-07-12 06:06:00,
2013-07-12 02:11:00,62.6,62.0,30.02,NW,307,0.0,0.0,98,0.00,,,0.00,WUHU216DAVISVP2,2013-07-12 06:11:00,
2013-07-12 02:16:00,62.6,62.0,30.03,NW,307,0.0,1.0,98,0.00,,,0.00,WUHU216DAVISVP2,2013-07-12 06:16:00,
2013-07-12 02:21:00,62.6,61.7,30.03,NW,307,0.0,1.0,97,0.00,,,0.00,WUHU216DAVISVP2,2013-07-12 06:21:00,
2013-07-12 02:26:00,62.6,62.0,30.02,NW,307,0.0,1.0,98,0.00,,,0.00,WUHU216DAVISVP2,2013-07-12 06:26:00,
2013-07-12 02:31:00,62.6,62.0,30.02,NW,307,0.0,1.0,98,0.00,,,0.00,WUHU216DAVISVP2,2013-07-12 06:31:00,
2013-07-12 02:36:00,62.7,62.1,30.03,NW,307,0.0,1.0,98,0.00,,,0.00,WUHU216DAVISVP2,2013-07-12 06:36:00,
2013-07-12 02:41:00,62.6,62.0,30.03,NW,308,0.0,1.0,98,0.00,,,0.00,WUHU216DAVISVP2,2013-07-12 06:41:00,
2013-07-12 02:46:00,62.6,62.0,30.03,NW,308,0.0,0.0,98,0.00,,,0.00,WUHU216DAVISVP2,2013-07-12 06:46:00,
2013-07-12 02:51:00,62.6,62.0,30.03,NW,307,0.0,0.0,98,0.00,,,0.00,WUHU216DAVISVP2,2013-07-12 06:51:00,
2013-07-12 02:56:00,62.5,61.9,30.03,NW,307,0.0,1.0,98,0.00,,,0.00,WUHU216DAVISVP2,2013-07-12 06:56:00,
2013-07-12 03:01:00,62.4,61.8,30.03,NW,308,0.0,1.0,98,0.00,,,0.00,WUHU216DAVISVP2,2013-07-12 07:01:00,
2013-07-12 03:06:00,62.4,61.8,30.04,NW,307,0.0,1.0,98,0.00,,,0.00,WUHU216DAVISVP2,2013-07-12 07:06:00,
2013-07-12 03:11:00,62.6,62.0,30.04,NW,307,0.0,1.0,98,0.00,,,0.00,WUHU216DAVISVP2,2013-07-12 07:11:00,
2013-07-12 03:16:00,62.5,61.9,30.04,NW,307,0.0,1.0,98,0.00,,,0.00,WUHU216DAVISVP2,2013-07-12 07:16:00,
2013-07-12 03:21:00,62.5,61.9,30.04,NW,307,0.0,1.0,98,0.00,,,0.00,WUHU216DAVISVP2,2013-07-12 07:21:00,
2013-07-12 03:26:00,62.5,61.9,30.04,NW,308,0.0,1.0,98,0.00,,,0.00,WUHU216DAVISVP2,2013-07-12 07:26:00,
2013-07-12 03:31:00,62.4,61.8,30.04,NW,307,0.0,1.0,98,0.00,,,0.00,WUHU216DAVISVP2,2013-07-12 07:31:00,
2013-07-12 03:36:00,62.5,61.9,30.04,NW,326,0.0,1.0,98,0.00,,,0.00,WUHU216DAVISVP2,2013-07-12 07:36:00,
2013-07-12 03:41:00,62.6,62.0,30.04,NW,326,0.0,1.0,98,0.00,,,0.00,WUHU216DAVISVP2,2013-07-12 07:41:00,
2013-07-12 03:46:00,62.6,62.0,30.04,NW,326,0.0,1.0,98,0.00,,,0.00,WUHU216DAVISVP2,2013-07-12 07:46:00,
2013-07-12 03:51:00,62.5,61.9,30.05,NW,326,0.0,1.0,98,0.00,,,0.00,WUHU216DAVISVP2,2013-07-12 07:51:00,
2013-07-12 03:56:00,62.5,61.9,30.05,NW,326,0.0,1.0,98,0.00,,,0.00,WUHU216DAVISVP2,2013-07-12 07:56:00,
2013-07-12 04:01:00,62.5,61.9,30.05,NW,326,0.0,1.0,98,0.00,,,0.00,WUHU216DAVISVP2,2013-07-12 08:01:00,
2013-07-12 04:06:00,62.5,61.9,30.05,NW,326,0.0,1.0,98,0.00,,,0.00,WUHU216DAVISVP2,2013-07-12 08:06:00,
2013-07-12 04:11:00,62.6,62.0,30.05,NW,326,0.0,1.0,98,0.00,,,0.00,WUHU216DAVISVP2,2013-07-12 08:11:00,
2013-07-12 04:16:00,62.6,62.0,30.06,NW,326,0.0,1.0,98,0.00,,,0.00,WUHU216DAVISVP2,2013-07-12 08:16:00,
2013-07-12 04:21:00,62.6,62.0,30.06,NW,326,0.0,1.0,98,0.00,,,0.00,WUHU216DAVISVP2,2013-07-12 08:21:00,
2013-07-12 04:26:00,62.6,62.0,30.06,NW,326,0.0,1.0,98,0.00,,,0.00,WUHU216DAVISVP2,2013-07-12 08:26:00,
2013-07-12 04:31:00,62.5,61.9,30.07,NW,326,0.0,1.0,98,0.00,,,0.00,WUHU216DAVISVP2,2013-07-12 08:31:00,
2013-07-12 04:36:00,62.5,61.9,30.07,NW,326,0.0,1.0,98,0.00,,,0.00,WUHU216DAVISVP2,2013-07-12 08:36:00,
2013-07-12 04:41:00,62.6,62.0,30.07,NW,326,1.0,1.0,98,0.00,,,0.00,WUHU216DAVISVP2,2013-07-12 08:41:00,
2013-07-12 04:46:00,62.6,62.0,30.07,NNW,327,0.0,1.0,98,0.00,,,0.00,WUHU216DAVISVP2,2013-07-12 08:46:00,
2013-07-12 04:51:00,62.6,62.0,30.07,NNW,328,0.0,2.0,98,0.00,,,0.00,WUHU216DAVISVP2,2013-07-12 08:51:00,
2013-07-12 04:56:00,62.6,62.0,30.07,WNW,283,0.0,2.0,98,0.00,,,0.00,WUHU216DAVISVP2,2013-07-12 08:56:00,
2013-07-12 05:01:00,62.5,61.9,30.07,NW,316,0.0,2.0,98,0.00,,,0.00,WUHU216DAVISVP2,2013-07-12 09:01:00,
2013-07-12 05:06:00,62.5,61.9,30.07,NW,315,0.0,2.0,98,0.00,,,0.00,WUHU216DAVISVP2,2013-07-12 09:06:00,
2013-07-12 05:11:00,62.5,61.9,30.07,NW,314,0.0,2.0,98,0.00,,,0.00,WUHU216DAVISVP2,2013-07-12 09:11:00,
2013-07-12 05:16:00,62.5,61.9,30.07,NW,314,0.0,1.0,98,0.00,,,0.00,WUHU216DAVISVP2,2013-07-12 09:16:00,
2013-07-12 05:21:00,62.5,61.9,30.07,NW,326,0.0,2.0,98,0.00,,,0.00,WUHU216DAVISVP2,2013-07-12 09:21:00,
2013-07-12 05:26:00,62.4,61.8,30.07,NW,326,0.0,2.0,98,0.00,,,0.00,WUHU216DAVISVP2,2013-07-12 09:26:00,
2013-07-12 05:31:00,62.4,61.8,30.07,NW,326,0.0,2.0,98,0.00,,,0.00,WUHU216DAVISVP2,2013-07-12 09:31:00,
2013-07-12 05:36:00,62.4,61.8,30.07,NW,326,1.0,2.0,98,0.00,,,0.00,WUHU216DAVISVP2,2013-07-12 09:36:00,
2013-07-12 05:41:00,62.4,61.8,30.07,NW,326,0.0,1.0,98,0.00,,,0.00,WUHU216DAVISVP2,2013-07-12 09:41:00,
2013-07-12 05:46:00,62.4,61.8,30.07,NNW,333,0.0,1.0,98,0.00,,,0.00,WUHU216DAVISVP2,2013-07-12 09:46:00,
2013-07-12 05:51:00,62.4,61.8,30.08,NNW,333,0.0,1.0,98,0.00,,,0.00,WUHU216DAVISVP2,2013-07-12 09:51:00,
2013-07-12 05:56:00,62.4,61.8,30.07,NNW,333,0.0,1.0,98,0.00,,,0.00,WUHU216DAVISVP2,2013-07-12 09:56:00,
2013-07-12 06:01:00,62.5,61.9,30.08,NNW,333,0.0,1.0,98,0.00,,,0.00,WUHU216DAVISVP2,2013-07-12 10:01:00,
2013-07-12 06:06:00,62.5,61.9,30.08,NW,323,0.0,2.0,98,0.00,,,0.00,WUHU216DAVISVP2,2013-07-12 10:06:00,
2013-07-12 06:11:00,62.5,61.9,30.08,NW,323,0.0,2.0,98,0.00,,,0.00,WUHU216DAVISVP2,2013-07-12 10:11:00,
2013-07-12 06:16:00,62.5,61.9,30.09,NW,323,0.0,2.0,98,0.00,,,0.00,WUHU216DAVISVP2,2013-07-12 10:16:00,
2013-07-12 06:21:00,62.6,62.0,30.09,NW,323,0.0,2.0,98,0.00,,,0.00,WUHU216DAVISVP2,2013-07-12 10:21:00,
2013-07-12 06:26:00,62.6,62.0,30.09,NW,323,0.0,1.0,98,0.00,,,0.00,WUHU216DAVISVP2,2013-07-12 10:26:00,
2013-07-12 06:31:00,62.6,62.0,30.09,NW,323,0.0,0.0,98,0.00,,,0.00,WUHU216DAVISVP2,2013-07-12 10:31:00,
2013-07-12 06:36:00,62.6,62.0,30.09,NW,323,0.0,0.0,98,0.00,,,0.00,WUHU216DAVISVP2,2013-07-12 10:36:00,
2013-07-12 06:41:00,62.6,62.0,30.09,NW,323,0.0,0.0,98,0.00,,,0.00,WUHU216DAVISVP2,2013-07-12 10:41:00,
2013-07-12 06:46:00,62.7,62.1,30.09,NW,323,0.0,0.0,98,0.00,,,0.00,WUHU216DAVISVP2,2013-07-12 10:46:00,
2013-07-12 06:51:00,62.8,62.5,30.09,NW,323,0.0,0.0,99,0.00,,,0.00,WUHU216DAVISVP2,2013-07-12 10:51:00,
2013-07-12 06:56:00,62.9,62.6,30.09,NW,323,0.0,1.0,99,0.00,,,0.00,WUHU216DAVISVP2,2013-07-12 10:56:00,
2013-07-12 07:01:00,63.0,62.7,30.10,NW,323,0.0,1.0,99,0.00,,,0.00,WUHU216DAVISVP2,2013-07-12 11:01:00,
2013-07-12 07:06:00,63.1,62.5,30.10,NW,323,0.0,1.0,98,0.00,,,0.00,WUHU216DAVISVP2,2013-07-12 11:06:00,
2013-07-12 07:11:00,63.2,62.6,30.10,NW,325,0.0,1.0,98,0.00,,,0.00,WUHU216DAVISVP2,2013-07-12 11:11:00,
2013-07-12 07:16:00,63.3,62.7,30.10,NW,325,0.0,2.0,98,0.00,,,0.00,WUHU216DAVISVP2,2013-07-12 11:16:00,
2013-07-12 07:21:00,63.4,62.8,30.10,NW,325,0.0,2.0,98,0.00,,,0.00,WUHU216DAVISVP2,2013-07-12 11:21:00,
2013-07-12 07:26:00,63.5,62.9,30.10,NW,305,0.0,2.0,98,0.00,,,0.00,WUHU216DAVISVP2,2013-07-12 11:26:00,
2013-07-12 07:31:00,63.6,63.0,30.10,NW,320,0.0,2.0,98,0.00,,,0.00,WUHU216DAVISVP2,2013-07-12 11:31:00,
2013-07-12 07:36:00,63.7,63.1,30.11,NNE,25,1.0,2.0,98,0.00,,,0.00,WUHU216DAVISVP2,2013-07-12 11:36:00,
2013-07-12 07:41:00,64.1,63.5,30.11,NNE,26,2.0,4.0,98,0.00,,,0.00,WUHU216DAVISVP2,2013-07-12 11:41:00,
2013-07-12 07:46:00,64.2,63.6,30.11,NNE,28,0.0,4.0,98,0.00,,,0.00,WUHU216DAVISVP2,2013-07-12 11:46:00,
2013-07-12 07:51:00,64.4,63.8,30.11,NNE,23,2.0,4.0,98,0.00,,,0.00,WUHU216DAVISVP2,2013-07-12 11:51:00,
2013-07-12 07:56:00,64.6,64.0,30.11,NE,39,1.0,4.0,98,0.00,,,0.00,WUHU216DAVISVP2,2013-07-12 11:56:00,
2013-07-12 08:01:00,64.8,64.2,30.11,NNW,334,0.0,4.0,98,0.00,,,0.00,WUHU216DAVISVP2,2013-07-12 12:01:00,
2013-07-12 08:06:00,65.0,64.4,30.11,NNE,16,1.0,4.0,98,0.00,,,0.00,WUHU216DAVISVP2,2013-07-12 12:06:00,
2013-07-12 08:11:00,65.1,64.5,30.11,NNE,32,2.0,4.0,98,0.00,,,0.00,WUHU216DAVISVP2,2013-07-12 12:11:00,
2013-07-12 08:16:00,65.4,64.8,30.12,NNE,25,2.0,4.0,98,0.00,,,0.00,WUHU216DAVISVP2,2013-07-12 12:16:00,
2013-07-12 08:21:00,65.7,64.8,30.12,NE,34,3.0,4.0,97,0.00,,,0.00,WUHU216DAVISVP2,2013-07-12 12:21:00,
2013-07-12 08:26:00,65.9,65.0,30.12,NE,37,0.0,4.0,97,0.00,,,0.00,WUHU216DAVISVP2,2013-07-12 12:26:00,
2013-07-12 08:31:00,66.2,65.0,30.11,NE,47,1.0,4.0,96,0.00,,,0.00,WUHU216DAVISVP2,2013-07-12 12:31:00,
2013-07-12 08:36:00,66.5,65.3,30.11,North,8,1.0,4.0,96,0.00,,,0.00,WUHU216DAVISVP2,2013-07-12 12:36:00,
2013-07-12 08:41:00,66.7,65.2,30.12,NNE,25,0.0,4.0,95,0.00,,,0.00,WUHU216DAVISVP2,2013-07-12 12:41:00,
2013-07-12 08:46:00,67.0,64.9,30.12,NE,40,4.0,4.0,93,0.00,,,0.00,WUHU216DAVISVP2,2013-07-12 12:46:00,
2013-07-12 08:51:00,67.1,64.7,30.12,NNE,18,0.0,5.0,92,0.00,,,0.00,WUHU216DAVISVP2,2013-07-12 12:51:00,
2013-07-12 08:56:00,67.7,65.3,30.12,NNE,27,2.0,5.0,92,0.00,,,0.00,WUHU216DAVISVP2,2013-07-12 12:56:00,
2013-07-12 09:01:00,68.0,65.0,30.13,South,173,0.0,4.0,90,0.00,,,0.00,WUHU216DAVISVP2,2013-07-12 13:01:00,
2013-07-12 09:06:00,68.1,64.7,30.13,NE,41,5.0,7.0,89,0.00,,,0.00,WUHU216DAVISVP2,2013-07-12 13:06:00,
2013-07-12 09:11:00,67.9,64.5,30.13,NNE,25,4.0,7.0,89,0.00,,,0.00,WUHU216DAVISVP2,2013-07-12 13:11:00,
2013-07-12 09:16:00,68.1,64.7,30.13,NNE,20,7.0,8.0,89,0.00,,,0.00,WUHU216DAVISVP2,2013-07-12 13:16:00,
2013-07-12 09:21:00,68.2,64.8,30.13,NNE,30,3.0,8.0,89,0.00,,,0.00,WUHU216DAVISVP2,2013-07-12 13:21:00,
2013-07-12 09:26:00,68.4,64.7,30.13,NNE,33,1.0,7.0,88,0.00,,,0.00,WUHU216DAVISVP2,2013-07-12 13:26:00,
2013-07-12 09:31:00,68.8,64.8,30.13,NNW,330,3.0,7.0,87,0.00,,,0.00,WUHU216DAVISVP2,2013-07-12 13:31:00,
2013-07-12 09:36:00,69.2,64.8,30.13,NNE,15,1.0,6.0,86,0.00,,,0.00,WUHU216DAVISVP2,2013-07-12 13:36:00,
2013-07-12 09:41:00,69.6,64.9,30.13,East,79,3.0,5.0,85,0.00,,,0.00,WUHU216DAVISVP2,2013-07-12 13:41:00,
2013-07-12 09:46:00,69.7,64.7,30.13,North,353,1.0,4.0,84,0.00,,,0.00,WUHU216DAVISVP2,2013-07-12 13:46:00,
2013-07-12 09:51:00,70.0,65.0,30.13,NE,48,0.0,4.0,84,0.00,,,0.00,WUHU216DAVISVP2,2013-07-12 13:51:00,
2013-07-12 09:56:00,70.1,64.7,30.13,East,79,3.0,4.0,83,0.00,,,0.00,WUHU216DAVISVP2,2013-07-12 13:56:00,
2013-07-12 10:01:00,70.3,64.9,30.12,WSW,246,0.0,4.0,83,0.00,,,0.00,WUHU216DAVISVP2,2013-07-12 14:01:00,
2013-07-12 10:06:00,70.7,65.0,30.12,NNE,20,5.0,5.0,82,0.00,,,0.00,WUHU216DAVISVP2,2013-07-12 14:06:00,
2013-07-12 10:11:00,70.4,64.7,30.12,NE,37,2.0,6.0,82,0.00,,,0.00,WUHU216DAVISVP2,2013-07-12 14:11:00,
2013-07-12 10:16:00,70.7,65.0,30.12,NE,50,3.0,6.0,82,0.00,,,0.00,WUHU216DAVISVP2,2013-07-12 14:16:00,
2013-07-12 10:21:00,70.8,65.0,30.12,NE,39,3.0,7.0,82,0.00,,,0.00,WUHU216DAVISVP2,2013-07-12 14:21:00,
2013-07-12 10:26:00,71.3,65.2,30.12,NNE,25,6.0,7.0,81,0.00,,,0.00,WUHU216DAVISVP2,2013-07-12 14:26:00,
2013-07-12 10:31:00,71.2,64.7,30.13,North,349,4.0,8.0,80,0.00,,,0.00,WUHU216DAVISVP2,2013-07-12 14:31:00,
2013-07-12 10:36:00,71.3,64.8,30.13,NNE,26,3.0,8.0,80,0.00,,,0.00,WUHU216DAVISVP2,2013-07-12 14:36:00,
2013-07-12 10:41:00,71.5,65.1,30.12,SE,132,1.0,8.0,80,0.00,,,0.00,WUHU216DAVISVP2,2013-07-12 14:41:00,
2013-07-12 10:46:00,72.2,65.4,30.13,NNE,30,4.0,7.0,79,0.00,,,0.00,WUHU216DAVISVP2,2013-07-12 14:46:00,
2013-07-12 10:51:00,72.0,64.9,30.13,NNW,333,4.0,8.0,78,0.00,,,0.00,WUHU216DAVISVP2,2013-07-12 14:51:00,
2013-07-12 10:56:00,72.1,65.0,30.13,NE,37,5.0,9.0,78,0.00,,,0.00,WUHU216DAVISVP2,2013-07-12 14:56:00,
2013-07-12 11:02:00,72.5,65.0,30.13,East,80,3.0,9.0,77,0.00,,,0.00,WUHU216DAVISVP2,2013-07-12 15:02:00,
2013-07-12 11:07:00,73.0,65.0,30.13,NNW,340,2.0,8.0,76,0.00,,,0.00,WUHU216DAVISVP2,2013-07-12 15:07:00,
2013-07-12 11:12:00,73.0,65.0,30.12,North,359,4.0,7.0,76,0.00,,,0.00,WUHU216DAVISVP2,2013-07-12 15:12:00,
2013-07-12 11:17:00,73.1,64.9,30.12,NNW,335,1.0,7.0,75,0.00,,,0.00,WUHU216DAVISVP2,2013-07-12 15:17:00,
2013-07-12 11:22:00,73.8,65.9,30.12,NNE,23,9.0,9.0,76,0.00,,,0.00,WUHU216DAVISVP2,2013-07-12 15:22:00,
2013-07-12 11:27:00,73.7,65.4,30.12,North,11,2.0,9.0,75,0.00,,,0.00,WUHU216DAVISVP2,2013-07-12 15:27:00,
2013-07-12 11:32:00,74.0,65.3,30.12,North,360,4.0,9.0,74,0.00,,,0.00,WUHU216DAVISVP2,2013-07-12 15:32:00,
2013-07-12 11:37:00,74.1,64.9,30.12,NE,34,3.0,9.0,73,0.00,,,0.00,WUHU216DAVISVP2,2013-07-12 15:37:00,
2013-07-12 11:42:00,74.6,64.8,30.12,East,99,1.0,8.0,71,0.00,,,0.00,WUHU216DAVISVP2,2013-07-12 15:42:00,
2013-07-12 11:47:00,74.6,64.8,30.13,NE,47,5.0,10.0,71,0.00,,,0.00,WUHU216DAVISVP2,2013-07-12 15:47:00,
2013-07-12 11:52:00,74.5,65.4,30.12,NNE,24,4.0,10.0,73,0.00,,,0.00,WUHU216DAVISVP2,2013-07-12 15:52:00,
2013-07-12 11:57:00,74.8,64.2,30.12,North,349,2.0,9.0,69,0.00,,,0.00,WUHU216DAVISVP2,2013-07-12 15:57:00,
2013-07-12 12:02:00,74.8,64.2,30.12,NNE,13,3.0,9.0,69,0.00,,,0.00,WUHU216DAVISVP2,2013-07-12 16:02:00,
2013-07-12 12:07:00,75.0,64.5,30.12,East,98,6.0,11.0,70,0.00,,,0.00,WUHU216DAVISVP2,2013-07-12 16:07:00,
2013-07-12 12:12:00,75.3,64.2,30.12,NNE,20,3.0,11.0,68,0.00,,,0.00,WUHU216DAVISVP2,2013-07-12 16:12:00,
2013-07-12 12:17:00,75.1,64.4,30.12,NNE,19,4.0,10.0,69,0.00,,,0.00,WUHU216DAVISVP2,2013-07-12 16:17:00,
2013-07-12 12:22:00,75.1,64.8,30.13,NE,51,4.0,9.0,70,0.00,,,0.00,WUHU216DAVISVP2,2013-07-12 16:22:00,
2013-07-12 12:27:00,75.4,63.5,30.13,NNW,342,4.0,10.0,66,0.00,,,0.00,WUHU216DAVISVP2,2013-07-12 16:27:00,
2013-07-12 12:32:00,75.4,62.1,30.13,NE,47,7.0,12.0,63,0.00,,,0.00,WUHU216DAVISVP2,2013-07-12 16:32:00,
2013-07-12 12:37:00,75.6,63.9,30.13,NW,326,1.0,12.0,67,0.00,,,0.00,WUHU216DAVISVP2,2013-07-12 16:37:00,
2013-07-12 12:42:00,76.1,63.9,30.13,ESE,104,4.0,11.0,66,0.00,,,0.00,WUHU216DAVISVP2,2013-07-12 16:42:00,
2013-07-12 12:47:00,76.2,64.2,30.13,North,4,1.0,11.0,66,0.00,,,0.00,WUHU216DAVISVP2,2013-07-12 16:47:00,
2013-07-12 12:52:00,76.6,64.6,30.13,East,82,4.0,9.0,66,0.00,,,0.00,WUHU216DAVISVP2,2013-07-12 16:52:00,
2013-07-12 12:57:00,76.5,63.2,30.12,NE,41,4.0,9.0,63,0.00,,,0.00,WUHU216DAVISVP2,2013-07-12 16:57:00,
2013-07-12 13:02:00,76.6,63.7,30.13,North,358,1.0,8.0,64,0.00,,,0.00,WUHU216DAVISVP2,2013-07-12 17:02:00,
2013-07-12 13:07:00,76.8,63.5,30.13,NNE,32,4.0,9.0,63,0.00,,,0.00,WUHU216DAVISVP2,2013-07-12 17:07:00,
2013-07-12 13:13:00,76.5,61.8,30.13,NNE,28,5.0,9.0,60,0.00,,,0.00,WUHU216DAVISVP2,2013-07-12 17:13:00,
2013-07-12 13:18:00,76.4,62.6,30.13,NNE,30,5.0,9.0,62,0.00,,,0.00,WUHU216DAVISVP2,2013-07-12 17:18:00,
2013-07-12 13:23:00,76.4,61.7,30.13,ENE,63,5.0,11.0,60,0.00,,,0.00,WUHU216DAVISVP2,2013-07-12 17:23:00,
2013-07-12 13:28:00,76.3,60.4,30.13,NE,36,4.0,11.0,58,0.00,,,0.00,WUHU216DAVISVP2,2013-07-12 17:28:00,
2013-07-12 13:33:00,76.5,60.1,30.13,ENE,61,1.0,11.0,57,0.00,,,0.00,WUHU216DAVISVP2,2013-07-12 17:33:00,
2013-07-12 13:38:00,77.1,61.4,30.13,NNE,30,6.0,10.0,58,0.00,,,0.00,WUHU216DAVISVP2,2013-07-12 17:38:00,
2013-07-12 13:43:00,77.2,61.0,30.13,NE,48,3.0,10.0,57,0.00,,,0.00,WUHU216DAVISVP2,2013-07-12 17:43:00,
2013-07-12 13:48:00,77.3,61.6,30.13,NNE,28,3.0,9.0,58,0.00,,,0.00,WUHU216DAVISVP2,2013-07-12 17:48:00,
2013-07-12 13:53:00,77.3,62.1,30.13,NNE,33,5.0,8.0,59,0.00,,,0.00,WUHU216DAVISVP2,2013-07-12 17:53:00,
2013-07-12 13:58:00,77.2,61.5,30.13,NNE,32,5.0,10.0,58,0.00,,,0.00,WUHU216DAVISVP2,2013-07-12 17:58:00,
2013-07-12 14:04:00,76.9,61.2,30.13,NE,39,6.0,10.0,58,0.00,,,0.00,WUHU216DAVISVP2,2013-07-12 18:04:00,
2013-07-12 14:09:00,76.7,61.0,30.13,NNW,330,5.0,11.0,58,0.00,,,0.00,WUHU216DAVISVP2,2013-07-12 18:09:00,
2013-07-12 14:14:00,76.8,60.6,30.13,East,85,7.0,11.0,57,0.00,,,0.00,WUHU216DAVISVP2,2013-07-12 18:14:00,
2013-07-12 14:19:00,76.7,60.5,30.13,NE,51,6.0,10.0,57,0.00,,,0.00,WUHU216DAVISVP2,2013-07-12 18:19:00,
2013-07-12 14:24:00,77.1,60.4,30.13,NNE,33,6.0,10.0,56,0.00,,,0.00,WUHU216DAVISVP2,2013-07-12 18:24:00,
2013-07-12 14:29:00,76.9,60.0,30.13,NE,36,6.0,9.0,56,0.00,,,0.00,WUHU216DAVISVP2,2013-07-12 18:29:00,
2013-07-12 14:34:00,77.2,61.3,30.13,NNE,33,3.0,9.0,58,0.00,,,0.00,WUHU216DAVISVP2,2013-07-12 18:34:00,
2013-07-12 14:39:00,77.4,60.7,30.13,NNW,340,4.0,10.0,56,0.00,,,0.00,WUHU216DAVISVP2,2013-07-12 18:39:00,
2013-07-12 14:44:00,77.0,60.3,30.13,ENE,58,4.0,10.0,56,0.00,,,0.00,WUHU216DAVISVP2,2013-07-12 18:44:00,
2013-07-12 14:49:00,76.9,61.2,30.13,NW,322,4.0,9.0,58,0.00,,,0.00,WUHU216DAVISVP2,2013-07-12 18:49:00,
2013-07-12 14:54:00,77.0,62.3,30.13,WNW,296,2.0,9.0,60,0.00,,,0.00,WUHU216DAVISVP2,2013-07-12 18:54:00,
2013-07-12 15:00:00,77.1,62.1,30.13,NNW,340,4.0,9.0,60,0.00,,,0.00,WUHU216DAVISVP2,2013-07-12 19:00:00,
2013-07-12 15:05:00,77.0,62.7,30.13,NNE,26,5.0,9.0,61,0.00,,,0.00,WUHU216DAVISVP2,2013-07-12 19:05:00,
2013-07-12 15:11:00,77.1,61.4,30.13,NNW,338,1.0,8.0,58,0.00,,,0.00,WUHU216DAVISVP2,2013-07-12 19:11:00,
2013-07-12 15:16:00,76.9,60.2,30.13,NNW,338,5.0,9.0,56,0.00,,,0.00,WUHU216DAVISVP2,2013-07-12 19:16:00,
2013-07-12 15:21:00,76.5,60.3,30.13,NNW,346,2.0,11.0,57,0.00,,,0.00,WUHU216DAVISVP2,2013-07-12 19:21:00,
2013-07-12 15:26:00,76.6,60.9,30.13,NNE,17,3.0,11.0,58,0.00,,,0.00,WUHU216DAVISVP2,2013-07-12 19:26:00,
2013-07-12 15:31:00,76.4,59.0,30.13,NNE,24,6.0,12.0,55,0.00,,,0.00,WUHU216DAVISVP2,2013-07-12 19:31:00,
2013-07-12 15:36:00,76.3,58.4,30.13,NW,326,3.0,12.0,54,0.00,,,0.00,WUHU216DAVISVP2,2013-07-12 19:36:00,
2013-07-12 15:41:00,76.2,58.9,30.13,NE,40,5.0,12.0,55,0.00,,,0.00,WUHU216DAVISVP2,2013-07-12 19:41:00,
2013-07-12 15:46:00,76.0,59.9,30.13,North,352,1.0,12.0,57,0.00,,,0.00,WUHU216DAVISVP2,2013-07-12 19:46:00,
2013-07-12 15:51:00,76.0,59.9,30.13,ENE,60,3.0,12.0,57,0.00,,,0.00,WUHU216DAVISVP2,2013-07-12 19:51:00,
2013-07-12 15:56:00,76.1,59.9,30.13,NE,52,4.0,11.0,57,0.00,,,0.00,WUHU216DAVISVP2,2013-07-12 19:56:00,
2013-07-12 16:02:00,75.9,60.3,30.13,NNW,330,3.0,13.0,58,0.00,,,0.00,WUHU216DAVISVP2,2013-07-12 20:02:00,
2013-07-12 16:07:00,75.9,60.7,30.13,ENE,57,10.0,13.0,59,0.00,,,0.00,WUHU216DAVISVP2,2013-07-12 20:07:00,
2013-07-12 16:12:00,75.7,59.9,30.13,North,352,4.0,12.0,58,0.00,,,0.00,WUHU216DAVISVP2,2013-07-12 20:12:00,
2013-07-12 16:17:00,75.7,61.0,30.12,NNW,328,3.0,12.0,60,0.00,,,0.00,WUHU216DAVISVP2,2013-07-12 20:17:00,
2013-07-12 16:22:00,75.8,61.6,30.12,North,11,3.0,12.0,61,0.00,,,0.00,WUHU216DAVISVP2,2013-07-12 20:22:00,
2013-07-12 16:27:00,75.8,60.7,30.12,NNW,327,6.0,12.0,59,0.00,,,0.00,WUHU216DAVISVP2,2013-07-12 20:27:00,
2013-07-12 16:32:00,75.7,60.1,30.11,NNE,16,9.0,9.0,58,0.00,,,0.00,WUHU216DAVISVP2,2013-07-12 20:32:00,
2013-07-12 16:37:00,75.4,59.8,30.11,NNE,30,3.0,9.0,58,0.00,,,0.00,WUHU216DAVISVP2,2013-07-12 20:37:00,
2013-07-12 16:42:00,75.4,60.3,30.11,NNW,346,3.0,9.0,59,0.00,,,0.00,WUHU216DAVISVP2,2013-07-12 20:42:00,
2013-07-12 16:47:00,75.3,60.2,30.12,NNW,342,3.0,10.0,59,0.00,,,0.00,WUHU216DAVISVP2,2013-07-12 20:47:00,
2013-07-12 16:53:00,75.1,60.0,30.12,North,8,2.0,10.0,59,0.00,,,0.00,WUHU216DAVISVP2,2013-07-12 20:53:00,
2013-07-12 16:58:00,75.1,60.5,30.12,North,11,3.0,10.0,60,0.00,,,0.00,WUHU216DAVISVP2,2013-07-12 20:58:00,
2013-07-12 17:03:00,75.0,59.9,30.12,NNE,25,1.0,10.0,59,0.00,,,0.00,WUHU216DAVISVP2,2013-07-12 21:03:00,
2013-07-12 17:08:00,75.0,59.9,30.12,NW,311,3.0,9.0,59,0.00,,,0.00,WUHU216DAVISVP2,2013-07-12 21:08:00,
2013-07-12 17:13:00,75.0,60.6,30.12,West,277,1.0,9.0,61,0.00,,,0.00,WUHU216DAVISVP2,2013-07-12 21:13:00,
2013-07-12 17:18:00,74.9,61.5,30.12,NNW,335,1.0,7.0,63,0.00,,,0.00,WUHU216DAVISVP2,2013-07-12 21:18:00,
2013-07-12 17:23:00,74.9,61.0,30.11,North,349,1.0,7.0,62,0.00,,,0.00,WUHU216DAVISVP2,2013-07-12 21:23:00,
2013-07-12 17:28:00,74.7,61.9,30.11,NNE,28,3.0,8.0,64,0.00,,,0.00,WUHU216DAVISVP2,2013-07-12 21:28:00,
2013-07-12 17:33:00,74.7,61.9,30.11,NNW,338,3.0,8.0,64,0.00,,,0.00,WUHU216DAVISVP2,2013-07-12 21:33:00,
2013-07-12 17:38:00,74.6,61.8,30.11,NNW,338,3.0,7.0,64,0.00,,,0.00,WUHU216DAVISVP2,2013-07-12 21:38:00,
2013-07-12 17:43:00,74.5,60.8,30.11,NNW,338,4.0,9.0,62,0.00,,,0.00,WUHU216DAVISVP2,2013-07-12 21:43:00,
2013-07-12 17:48:00,74.5,61.7,30.11,WNW,300,4.0,9.0,64,0.00,,,0.00,WUHU216DAVISVP2,2013-07-12 21:48:00,
2013-07-12 17:53:00,74.5,61.3,30.11,NNW,342,2.0,8.0,63,0.00,,,0.00,WUHU216DAVISVP2,2013-07-12 21:53:00,
2013-07-12 17:59:00,74.4,61.6,30.11,NW,320,3.0,8.0,64,0.00,,,0.00,WUHU216DAVISVP2,2013-07-12 21:59:00,
2013-07-12 18:04:00,74.2,61.9,30.11,NNE,26,6.0,8.0,65,0.00,,,0.00,WUHU216DAVISVP2,2013-07-12 22:04:00,
2013-07-12 18:09:00,74.0,61.0,30.11,NNW,344,3.0,9.0,64,0.00,,,0.00,WUHU216DAVISVP2,2013-07-12 22:09:00,
2013-07-12 18:15:00,73.8,61.1,30.12,NNE,33,0.0,9.0,64,0.00,,,0.00,WUHU216DAVISVP2,2013-07-12 22:15:00,
2013-07-12 18:20:00,73.7,61.4,30.11,NNE,13,2.0,9.0,65,0.00,,,0.00,WUHU216DAVISVP2,2013-07-12 22:20:00,
2013-07-12 18:25:00,73.6,60.9,30.11,NE,37,8.0,9.0,64,0.00,,,0.00,WUHU216DAVISVP2,2013-07-12 22:25:00,
2013-07-12 18:30:00,73.5,61.2,30.12,NNE,12,2.0,9.0,65,0.00,,,0.00,WUHU216DAVISVP2,2013-07-12 22:30:00,
2013-07-12 18:35:00,73.5,60.8,30.12,NE,53,1.0,9.0,64,0.00,,,0.00,WUHU216DAVISVP2,2013-07-12 22:35:00,
2013-07-12 18:41:00,73.3,61.0,30.12,North,358,1.0,8.0,65,0.00,,,0.00,WUHU216DAVISVP2,2013-07-12 22:41:00,
2013-07-12 18:46:00,73.1,60.8,30.12,NNW,335,3.0,6.0,65,0.00,,,0.00,WUHU216DAVISVP2,2013-07-12 22:46:00,
2013-07-12 18:51:00,72.9,61.1,30.12,NNW,328,1.0,6.0,66,0.00,,,0.00,WUHU216DAVISVP2,2013-07-12 22:51:00,
2013-07-12 18:56:00,72.7,61.1,30.12,NNW,335,3.0,6.0,67,0.00,,,0.00,WUHU216DAVISVP2,2013-07-12 22:56:00,
2013-07-12 19:01:00,72.6,61.2,30.12,NE,39,0.0,6.0,67,0.00,,,0.00,WUHU216DAVISVP2,2013-07-12 23:01:00,
2013-07-12 19:06:00,72.6,61.2,30.11,NE,36,3.0,6.0,67,0.00,,,0.00,WUHU216DAVISVP2,2013-07-12 23:06:00,
2013-07-12 19:11:00,72.4,61.0,30.11,NNW,328,1.0,4.0,67,0.00,,,0.00,WUHU216DAVISVP2,2013-07-12 23:11:00,
2013-07-12 19:16:00,72.2,61.2,30.11,North,4,2.0,4.0,68,0.00,,,0.00,WUHU216DAVISVP2,2013-07-12 23:16:00,
2013-07-12 19:21:00,72.1,61.6,30.11,NNE,20,0.0,4.0,69,0.00,,,0.00,WUHU216DAVISVP2,2013-07-12 23:21:00,
2013-07-12 19:26:00,72.1,62.0,30.12,NNW,340,0.0,4.0,70,0.00,,,0.00,WUHU216DAVISVP2,2013-07-12 23:26:00,
2013-07-12 19:31:00,72.0,61.5,30.12,NNW,333,1.0,4.0,69,0.00,,,0.00,WUHU216DAVISVP2,2013-07-12 23:31:00,
2013-07-12 19:37:00,71.8,61.7,30.12,NNW,340,0.0,3.0,70,0.00,,,0.00,WUHU216DAVISVP2,2013-07-12 23:37:00,
2013-07-12 19:42:00,71.6,61.3,30.12,NNW,345,1.0,4.0,70,0.00,,,0.00,WUHU216DAVISVP2,2013-07-12 23:42:00,
2013-07-12 19:47:00,71.4,61.7,30.12,NNE,30,0.0,4.0,71,0.00,,,0.00,WUHU216DAVISVP2,2013-07-12 23:47:00,
2013-07-12 19:52:00,71.3,62.0,30.12,ENE,63,2.0,4.0,72,0.00,,,0.00,WUHU216DAVISVP2,2013-07-12 23:52:00,
2013-07-12 19:57:00,71.1,62.2,30.12,NNW,335,0.0,4.0,73,0.00,,,0.00,WUHU216DAVISVP2,2013-07-12 23:57:00,
2013-07-12 20:02:00,71.0,62.4,30.12,NNW,329,0.0,4.0,74,0.00,,,0.00,WUHU216DAVISVP2,2013-07-13 00:02:00,
2013-07-12 20:07:00,70.8,62.3,30.12,NNW,343,1.0,4.0,74,0.00,,,0.00,WUHU216DAVISVP2,2013-07-13 00:07:00,
2013-07-12 20:12:00,70.7,62.2,30.12,North,4,0.0,3.0,74,0.00,,,0.00,WUHU216DAVISVP2,2013-07-13 00:12:00,
2013-07-12 20:17:00,70.5,62.3,30.13,NNW,334,0.0,3.0,75,0.00,,,0.00,WUHU216DAVISVP2,2013-07-13 00:17:00,
2013-07-12 20:23:00,70.3,62.5,30.13,NW,322,0.0,2.0,76,0.00,,,0.00,WUHU216DAVISVP2,2013-07-13 00:23:00,
2013-07-12 20:28:00,70.2,62.4,30.13,North,352,0.0,2.0,76,0.00,,,0.00,WUHU216DAVISVP2,2013-07-13 00:28:00,
2013-07-12 20:33:00,70.0,62.6,30.13,NW,319,2.0,3.0,77,0.00,,,0.00,WUHU216DAVISVP2,2013-07-13 00:33:00,
2013-07-12 20:38:00,69.8,62.4,30.13,NW,320,0.0,3.0,77,0.00,,,0.00,WUHU216DAVISVP2,2013-07-13 00:38:00,
2013-07-12 20:43:00,69.6,62.4,30.13,NW,314,0.0,3.0,78,0.00,,,0.00,WUHU216DAVISVP2,2013-07-13 00:43:00,
2013-07-12 20:48:00,69.4,62.2,30.13,NW,322,1.0,3.0,78,0.00,,,0.00,WUHU216DAVISVP2,2013-07-13 00:48:00,
2013-07-12 20:53:00,69.2,62.4,30.13,NW,314,0.0,3.0,79,0.00,,,0.00,WUHU216DAVISVP2,2013-07-13 00:53:00,
2013-07-12 20:58:00,68.9,62.5,30.13,NW,316,1.0,3.0,80,0.00,,,0.00,WUHU216DAVISVP2,2013-07-13 00:58:00,
2013-07-12 21:03:00,68.6,62.3,30.13,NNW,335,0.0,2.0,80,0.00,,,0.00,WUHU216DAVISVP2,2013-07-13 01:03:00,
2013-07-12 21:08:00,68.4,62.4,30.13,NNW,336,0.0,1.0,81,0.00,,,0.00,WUHU216DAVISVP2,2013-07-13 01:08:00,
2013-07-12 21:14:00,68.2,62.2,30.14,NNW,330,0.0,1.0,81,0.00,,,0.00,WUHU216DAVISVP2,2013-07-13 01:14:00,
2013-07-12 21:19:00,67.9,62.3,30.14,NNW,335,1.0,3.0,82,0.00,,,0.00,WUHU216DAVISVP2,2013-07-13 01:19:00,
2013-07-12 21:24:00,67.8,62.2,30.14,NNW,335,0.0,3.0,82,0.00,,,0.00,WUHU216DAVISVP2,2013-07-13 01:24:00,
2013-07-12 21:29:00,67.6,62.3,30.14,NW,326,0.0,3.0,83,0.00,,,0.00,WUHU216DAVISVP2,2013-07-13 01:29:00,
2013-07-12 21:34:00,67.4,62.1,30.14,NNW,336,0.0,3.0,83,0.00,,,0.00,WUHU216DAVISVP2,2013-07-13 01:34:00,
2013-07-12 21:39:00,67.3,62.3,30.14,NNW,340,1.0,3.0,84,0.00,,,0.00,WUHU216DAVISVP2,2013-07-13 01:39:00,
2013-07-12 21:44:00,67.2,62.2,30.15,NW,318,2.0,3.0,84,0.00,,,0.00,WUHU216DAVISVP2,2013-07-13 01:44:00,
2013-07-12 21:49:00,67.1,62.1,30.15,NNW,334,1.0,3.0,84,0.00,,,0.00,WUHU216DAVISVP2,2013-07-13 01:49:00,
2013-07-12 21:54:00,66.9,62.3,30.15,NW,305,1.0,3.0,85,0.00,,,0.00,WUHU216DAVISVP2,2013-07-13 01:54:00,
2013-07-12 21:59:00,66.8,62.2,30.15,NW,307,0.0,3.0,85,0.00,,,0.00,WUHU216DAVISVP2,2013-07-13 01:59:00,
2013-07-12 22:04:00,66.7,62.0,30.16,WNW,287,0.0,3.0,85,0.00,,,0.00,WUHU216DAVISVP2,2013-07-13 02:04:00,
2013-07-12 22:10:00,66.6,61.9,30.16,WNW,283,0.0,2.0,85,0.00,,,0.00,WUHU216DAVISVP2,2013-07-13 02:10:00,
2013-07-12 22:15:00,66.6,62.3,30.16,NW,305,0.0,2.0,86,0.00,,,0.00,WUHU216DAVISVP2,2013-07-13 02:15:00,
2013-07-12 22:20:00,66.5,62.2,30.16,NW,305,0.0,2.0,86,0.00,,,0.00,WUHU216DAVISVP2,2013-07-13 02:20:00,
2013-07-12 22:25:00,66.5,62.2,30.16,NW,305,0.0,2.0,86,0.00,,,0.00,WUHU216DAVISVP2,2013-07-13 02:25:00,
2013-07-12 22:31:00,66.4,62.4,30.16,NW,304,0.0,2.0,87,0.00,,,0.00,WUHU216DAVISVP2,2013-07-13 02:31:00,
2013-07-12 22:36:00,66.4,62.4,30.16,NNW,336,2.0,2.0,87,0.00,,,0.00,WUHU216DAVISVP2,2013-07-13 02:36:00,
2013-07-12 22:41:00,66.4,62.4,30.16,West,280,0.0,2.0,87,0.00,,,0.00,WUHU216DAVISVP2,2013-07-13 02:41:00,
2013-07-12 22:46:00,66.3,62.3,30.16,WNW,287,0.0,2.0,87,0.00,,,0.00,WUHU216DAVISVP2,2013-07-13 02:46:00,
2013-07-12 22:51:00,66.3,62.3,30.16,NW,318,0.0,2.0,87,0.00,,,0.00,WUHU216DAVISVP2,2013-07-13 02:51:00,
2013-07-12 22:56:00,66.3,62.3,30.16,WNW,303,1.0,1.0,87,0.00,,,0.00,WUHU216DAVISVP2,2013-07-13 02:56:00,
2013-07-12 23:01:00,66.2,62.2,30.16,NW,322,0.0,2.0,87,0.00,,,0.00,WUHU216DAVISVP2,2013-07-13 03:01:00,
2013-07-12 23:06:00,66.2,62.5,30.16,WNW,285,0.0,2.0,88,0.00,,,0.00,WUHU216DAVISVP2,2013-07-13 03:06:00,
2013-07-12 23:11:00,66.1,62.4,30.16,NNW,333,2.0,2.0,88,0.00,,,0.00,WUHU216DAVISVP2,2013-07-13 03:11:00,
2013-07-12 23:16:00,66.1,62.4,30.16,NW,321,1.0,2.0,88,0.00,,,0.00,WUHU216DAVISVP2,2013-07-13 03:16:00,
2013-07-12 23:21:00,66.0,62.3,30.16,NNW,333,2.0,2.0,88,0.00,,,0.00,WUHU216DAVISVP2,2013-07-13 03:21:00,
2013-07-12 23:26:00,65.9,62.6,30.16,NNW,338,1.0,3.0,89,0.00,,,0.00,WUHU216DAVISVP2,2013-07-13 03:26:00,
2013-07-12 23:31:00,65.9,62.6,30.16,NW,323,1.0,3.0,89,0.00,,,0.00,WUHU216DAVISVP2,2013-07-13 03:31:00,
2013-07-12 23:37:00,65.8,62.5,30.17,NW,325,0.0,3.0,89,0.00,,,0.00,WUHU216DAVISVP2,2013-07-13 03:37:00,
2013-07-12 23:42:00,65.6,62.6,30.17,NNW,332,1.0,3.0,90,0.00,,,0.00,WUHU216DAVISVP2,2013-07-13 03:42:00,
2013-07-12 23:47:00,65.6,62.6,30.16,NNW,336,0.0,3.0,90,0.00,,,0.00,WUHU216DAVISVP2,2013-07-13 03:47:00,
2013-07-12 23:52:00,65.5,62.5,30.17,NW,314,0.0,3.0,90,0.00,,,0.00,WUHU216DAVISVP2,2013-07-13 03:52:00,
2013-07-12 23:57:00,65.5,62.5,30.16,NW,322,0.0,3.0,90,0.00,,,0.00,WUHU216DAVISVP2,2013-07-13 03:57:00,